Time;durP1;ratioP1;P1;durP2;ratioP2;P2;SDS_P1;SDS_P2;PMS_P1;PMS_P2;Temp;Humidity;BMP_temperature;BMP_pressure;BME280_temperature;BME280_humidity;BME280_pressure;Samples;Min_cycle;Max_cycle;Signal;HPM_P1;HPM_P2
2021/03/26 00:00:00;;;;;;;3.23;1.50;;;13.10;99.90;;;;;;4889396;29;20293;-91
2021/03/26 00:02:31;;;;;;;3.90;1.50;;;13.40;99.90;;;;;;4889002;29;20345;-91
2021/03/26 00:05:01;;;;;;;4.17;1.73;;;13.30;99.90;;;;;;4889772;29;20218;-91
2021/03/26 00:07:32;;;;;;;3.80;1.40;;;13.20;99.90;;;;;;4889666;29;20246;-92
2021/03/26 00:10:04;;;;;;;3.90;1.27;;;13.10;99.90;;;;;;4888968;29;20652;-92
2021/03/26 00:12:34;;;;;;;2.47;1.20;;;13.00;99.90;;;;;;4887090;29;20225;-92
2021/03/26 00:15:09;;;;;;;5.27;1.47;;;12.80;99.90;;;;;;4889675;29;20258;-93
2021/03/26 00:17:40;;;;;;;3.93;1.40;;;12.50;99.90;;;;;;4887221;29;20304;-94
2021/03/26 00:20:13;;;;;;;3.17;1.37;;;12.40;99.90;;;;;;4888929;29;20214;-91
2021/03/26 00:22:44;;;;;;;5.27;1.40;;;12.40;99.90;;;;;;4886486;29;20298;-91
2021/03/26 00:25:19;;;;;;;7.93;1.70;;;12.30;99.90;;;;;;4890803;29;20210;-90
2021/03/26 00:27:50;;;;;;;7.63;2.30;;;12.30;99.90;;;;;;4892018;29;20332;-90
2021/03/26 00:30:26;;;;;;;5.93;1.93;;;12.20;99.90;;;;;;4890534;29;20278;-92
2021/03/26 00:32:57;;;;;;;5.40;1.57;;;12.40;99.90;;;;;;4891579;29;20266;-89
2021/03/26 00:35:30;;;;;;;5.97;1.50;;;12.40;99.90;;;;;;4892388;29;20252;-89
2021/03/26 00:38:01;;;;;;;5.23;1.67;;;12.60;99.90;;;;;;4890194;29;20214;-92
2021/03/26 00:40:32;;;;;;;6.50;1.70;;;12.40;99.90;;;;;;4891846;29;20229;-89
2021/03/26 00:43:05;;;;;;;5.33;2.07;;;12.50;99.90;;;;;;4900072;29;20217;-89
2021/03/26 00:45:42;;;;;;;6.60;1.77;;;12.70;99.90;;;;;;4931630;29;20389;-90
2021/03/26 00:48:14;;;;;;;4.70;1.70;;;12.90;99.90;;;;;;4914070;29;20265;-90
2021/03/26 00:50:47;;;;;;;6.97;1.80;;;12.90;99.90;;;;;;4912656;29;20244;-89
2021/03/26 00:53:24;;;;;;;3.10;1.40;;;12.90;99.90;;;;;;4913900;29;20310;-89
2021/03/26 00:55:57;;;;;;;6.07;1.83;;;13.00;99.90;;;;;;4916667;29;20240;-89
2021/03/26 00:58:30;;;;;;;4.10;1.40;;;12.90;99.90;;;;;;4921710;29;20230;-90
2021/03/26 01:01:03;;;;;;;2.47;0.93;;;12.90;99.90;;;;;;4922593;29;20201;-92
2021/03/26 01:03:34;;;;;;;4.90;1.40;;;12.70;99.90;;;;;;4917429;29;20225;-91
2021/03/26 01:06:09;;;;;;;2.57;1.17;;;12.50;99.90;;;;;;4911059;29;20316;-91
2021/03/26 01:08:40;;;;;;;2.83;1.50;;;12.40;99.90;;;;;;4909844;29;20706;-92
2021/03/26 01:11:15;;;;;;;4.60;1.43;;;12.10;99.90;;;;;;4905654;29;20655;-90
2021/03/26 01:13:46;;;;;;;3.53;1.23;;;11.90;99.90;;;;;;4902929;29;20574;-90
2021/03/26 01:16:20;;;;;;;5.50;1.60;;;11.80;99.90;;;;;;4902949;29;20325;-91
2021/03/26 01:18:51;;;;;;;5.00;1.47;;;11.70;99.90;;;;;;4902607;29;20705;-91
2021/03/26 01:21:27;;;;;;;4.33;1.30;;;11.70;99.90;;;;;;4903194;29;20642;-90
2021/03/26 01:23:59;;;;;;;3.80;1.20;;;11.70;99.90;;;;;;4908117;29;20308;-90
2021/03/26 01:26:31;;;;;;;4.80;1.50;;;11.70;99.90;;;;;;4903946;29;20229;-90
2021/03/26 01:29:01;;;;;;;2.30;1.20;;;11.60;99.90;;;;;;4908031;29;20282;-91
2021/03/26 01:31:34;;;;;;;3.60;1.50;;;11.50;99.90;;;;;;4908616;29;20214;-91
2021/03/26 01:34:07;;;;;;;3.30;1.30;;;11.30;99.90;;;;;;4906123;29;20288;-92
2021/03/26 01:36:38;;;;;;;2.60;1.13;;;11.00;99.90;;;;;;4906611;29;20241;-91
2021/03/26 01:39:09;;;;;;;3.27;1.60;;;10.70;99.90;;;;;;4904063;29;20232;-93
2021/03/26 01:41:43;;;;;;;4.77;1.43;;;10.60;99.90;;;;;;4907271;29;20229;-93
2021/03/26 01:44:17;;;;;;;2.27;1.23;;;10.50;99.90;;;;;;4911242;29;20253;-94
2021/03/26 01:46:51;;;;;;;4.60;1.50;;;10.40;99.90;;;;;;4910668;29;20690;-93
2021/03/26 01:49:21;;;;;;;3.50;1.30;;;10.40;99.90;;;;;;4889566;29;20278;-93
2021/03/26 01:51:53;;;;;;;4.60;1.40;;;10.30;99.90;;;;;;4886602;29;20211;-91
2021/03/26 01:54:27;;;;;;;5.87;1.57;;;10.20;99.90;;;;;;4888278;29;20206;-92
2021/03/26 01:56:58;;;;;;;3.53;1.10;;;10.20;99.90;;;;;;4896980;29;20211;-92
2021/03/26 01:59:29;;;;;;;3.73;1.47;;;10.20;99.90;;;;;;4894151;29;20238;-92
2021/03/26 02:04:55;;;;;;;5.87;1.20;;;10.00;99.90;;;;;;4901468;29;20238;-92
2021/03/26 02:07:27;;;;;;;4.63;1.63;;;9.90;99.90;;;;;;4890387;29;20250;-93
2021/03/26 02:09:59;;;;;;;3.07;1.23;;;9.90;99.90;;;;;;4899524;29;20218;-93
2021/03/26 02:12:34;;;;;;;3.20;1.20;;;9.80;99.90;;;;;;4890914;29;20220;-92
2021/03/26 02:15:11;;;;;;;5.53;1.80;;;9.70;99.90;;;;;;4886000;29;20210;-94
2021/03/26 02:17:44;;;;;;;2.53;1.53;;;9.60;99.90;;;;;;4885885;29;20206;-93
2021/03/26 02:20:28;;;;;;;5.73;1.90;;;9.50;99.90;;;;;;4886831;29;20237;-91
2021/03/26 02:23:06;;;;;;;4.00;1.70;;;9.30;99.90;;;;;;4888443;29;20210;-93
2021/03/26 02:25:41;;;;;;;7.43;1.57;;;9.20;99.90;;;;;;4886806;29;20214;-93
2021/03/26 02:28:14;;;;;;;5.80;1.90;;;9.10;99.90;;;;;;4886935;29;20233;-92
2021/03/26 02:30:55;;;;;;;2.97;1.33;;;9.00;99.90;;;;;;4885627;29;20210;-92
2021/03/26 02:33:27;;;;;;;4.37;1.60;;;8.90;99.90;;;;;;4883911;29;20572;-93
2021/03/26 02:36:32;;;;;;;3.30;1.43;;;8.80;99.90;;;;;;4884454;29;20210;-93
2021/03/26 02:39:17;;;;;;;6.30;1.67;;;8.60;99.90;;;;;;4885522;29;20242;-91
2021/03/26 02:41:52;;;;;;;6.27;1.60;;;8.50;99.90;;;;;;4890118;29;20214;-89
2021/03/26 02:44:32;;;;;;;4.30;1.50;;;8.40;99.90;;;;;;4891349;29;20209;-91
2021/03/26 02:47:18;;;;;;;4.00;1.30;;;8.30;99.90;;;;;;4891062;29;20334;-90
2021/03/26 02:50:03;;;;;;;5.00;1.60;;;8.30;99.90;;;;;;4891638;29;20289;-90
2021/03/26 02:52:44;;;;;;;3.67;1.27;;;8.10;99.90;;;;;;4887324;29;20211;-92
2021/03/26 02:55:26;;;;;;;4.50;1.30;;;8.10;99.90;;;;;;4883415;29;20232;-92
2021/03/26 02:58:04;;;;;;;2.77;1.60;;;8.00;99.90;;;;;;4889496;29;20210;-93
2021/03/26 03:00:41;;;;;;;3.20;1.27;;;8.00;99.90;;;;;;4890634;29;20214;-93
2021/03/26 03:03:23;;;;;;;2.83;1.23;;;7.90;99.90;;;;;;4890354;29;20242;-92
2021/03/26 03:06:00;;;;;;;5.40;1.23;;;7.90;99.90;;;;;;4890986;29;20297;-92
2021/03/26 03:08:34;;;;;;;4.60;1.40;;;7.80;99.90;;;;;;4891311;29;20573;-92
2021/03/26 03:11:15;;;;;;;5.07;1.33;;;7.70;99.90;;;;;;4891070;29;20214;-92
2021/03/26 03:13:50;;;;;;;3.00;1.00;;;7.70;99.90;;;;;;4883916;29;20242;-93
2021/03/26 03:16:29;;;;;;;1.77;1.07;;;7.70;99.90;;;;;;4882672;29;20307;-91
2021/03/26 03:19:13;;;;;;;3.47;1.20;;;7.60;99.90;;;;;;4884733;29;20284;-92
2021/03/26 03:21:54;;;;;;;2.77;1.50;;;7.60;99.90;;;;;;4889577;29;20301;-92
2021/03/26 03:24:34;;;;;;;3.97;1.50;;;7.50;99.90;;;;;;4889090;29;20214;-94
2021/03/26 03:27:38;;;;;;;3.80;1.50;;;7.40;99.90;;;;;;4893570;29;20240;-93
2021/03/26 03:30:29;;;;;;;4.83;1.50;;;7.30;99.90;;;;;;4895324;29;20269;-93
2021/03/26 03:33:12;;;;;;;6.07;2.10;;;7.30;99.90;;;;;;4903492;29;20235;-93
2021/03/26 03:35:52;;;;;;;7.90;2.70;;;7.20;99.90;;;;;;4909535;29;20229;-93
2021/03/26 03:38:35;;;;;;;4.20;2.00;;;7.20;99.90;;;;;;4890614;29;20208;-93
2021/03/26 03:41:13;;;;;;;5.33;1.87;;;7.20;99.90;;;;;;4889266;29;20210;-93
2021/03/26 03:43:53;;;;;;;4.83;1.90;;;7.10;99.90;;;;;;4889596;29;20696;-93
2021/03/26 03:46:31;;;;;;;3.17;1.80;;;7.00;99.90;;;;;;4892166;29;20218;-92
2021/03/26 03:49:10;;;;;;;3.77;2.00;;;6.80;99.90;;;;;;4889687;29;20249;-93
2021/03/26 03:51:48;;;;;;;3.20;1.70;;;6.70;99.90;;;;;;4888334;29;20214;-91
2021/03/26 03:54:26;;;;;;;2.70;1.80;;;6.60;99.90;;;;;;4891458;29;20251;-92
2021/03/26 03:57:02;;;;;;;4.70;2.17;;;6.60;99.90;;;;;;4887739;29;20242;-92
2021/03/26 03:59:43;;;;;;;4.77;2.40;;;6.60;99.90;;;;;;4888762;29;20214;-92
2021/03/26 04:02:22;;;;;;;5.67;2.37;;;6.60;99.90;;;;;;4887411;29;20213;-92
2021/03/26 04:05:00;;;;;;;4.30;2.20;;;6.50;99.90;;;;;;4890643;29;20216;-92
2021/03/26 04:07:37;;;;;;;3.40;2.10;;;6.50;99.90;;;;;;4887975;29;20246;-92
2021/03/26 04:10:12;;;;;;;5.90;3.20;;;6.40;99.90;;;;;;4885666;29;20655;-92
2021/03/26 04:12:51;;;;;;;2.77;1.70;;;6.40;99.90;;;;;;4885270;29;20226;-92
2021/03/26 04:15:30;;;;;;;5.17;2.20;;;6.40;99.90;;;;;;4883791;29;20269;-92
2021/03/26 04:18:09;;;;;;;3.30;2.10;;;6.30;99.90;;;;;;4884396;29;20244;-93
2021/03/26 04:20:46;;;;;;;5.70;2.30;;;6.30;99.90;;;;;;4885658;29;20225;-94
2021/03/26 04:23:25;;;;;;;3.33;2.10;;;6.30;99.90;;;;;;4903568;29;20273;-92
2021/03/26 04:26:07;;;;;;;6.90;2.27;;;6.20;99.90;;;;;;4912807;29;20257;-93
2021/03/26 04:28:49;;;;;;;4.07;2.40;;;6.20;99.90;;;;;;4897050;29;20219;-92
2021/03/26 04:31:29;;;;;;;3.87;2.50;;;6.10;99.90;;;;;;4886400;29;20210;-93
2021/03/26 04:34:01;;;;;;;11.53;10.30;;;6.00;99.90;;;;;;4888121;29;20219;-92
2021/03/26 04:36:40;;;;;;;11.70;8.57;;;5.90;99.90;;;;;;4884966;29;20245;-92
2021/03/26 04:39:22;;;;;;;11.93;8.63;;;5.70;99.90;;;;;;4885088;29;20221;-93
2021/03/26 04:42:00;;;;;;;9.17;8.03;;;5.60;99.90;;;;;;4885790;29;20210;-91
2021/03/26 04:44:37;;;;;;;11.57;8.23;;;5.60;99.90;;;;;;4885799;29;20210;-92
2021/03/26 04:47:19;;;;;;;13.47;7.90;;;5.60;99.90;;;;;;4885014;29;20336;-93
2021/03/26 04:49:56;;;;;;;13.57;8.37;;;5.60;99.90;;;;;;4885980;29;20202;-93
2021/03/26 04:52:35;;;;;;;14.10;8.47;;;5.60;99.90;;;;;;4885485;29;20218;-92
2021/03/26 04:55:13;;;;;;;14.87;8.90;;;5.70;99.90;;;;;;4886476;29;20607;-92
2021/03/26 04:57:49;;;;;;;12.67;8.17;;;5.70;99.90;;;;;;4887800;29;20301;-93
2021/03/26 05:00:25;;;;;;;11.07;5.87;;;5.70;99.90;;;;;;4886797;29;20206;-93
2021/03/26 05:03:05;;;;;;;8.37;4.30;;;5.70;99.90;;;;;;4887875;29;20217;-92
2021/03/26 05:05:42;;;;;;;5.83;4.03;;;5.60;99.90;;;;;;4887862;29;20221;-90
2021/03/26 05:08:16;;;;;;;5.63;3.50;;;5.60;99.90;;;;;;4887788;29;20612;-91
2021/03/26 05:10:49;;;;;;;6.47;3.53;;;5.60;99.90;;;;;;4888210;29;20242;-91
2021/03/26 05:13:28;;;;;;;5.77;3.20;;;5.60;99.90;;;;;;4891030;29;20221;-91
2021/03/26 05:16:17;;;;;;;5.63;3.00;;;5.60;99.90;;;;;;4893155;29;20313;-91
2021/03/26 05:18:55;;;;;;;3.70;2.50;;;5.60;99.90;;;;;;4892127;29;20216;-91
2021/03/26 05:21:34;;;;;;;4.47;2.30;;;5.60;99.90;;;;;;4889282;29;20274;-91
2021/03/26 05:24:15;;;;;;;5.80;2.77;;;5.60;99.90;;;;;;4887109;29;20210;-93
2021/03/26 05:26:45;;;;;;;4.53;2.67;;;5.50;99.90;;;;;;4898469;29;20313;-91
2021/03/26 05:29:17;;;;;;;4.97;2.83;;;5.50;99.90;;;;;;4905483;29;20304;-92
2021/03/26 05:32:06;;;;;;;6.40;2.50;;;5.50;99.90;;;;;;4907381;29;20212;-92
2021/03/26 05:34:54;;;;;;;5.57;2.57;;;5.50;99.90;;;;;;4905503;29;20213;-91
2021/03/26 05:37:30;;;;;;;4.80;2.73;;;5.50;99.90;;;;;;4911236;29;20697;-90
2021/03/26 05:40:10;;;;;;;6.30;3.10;;;5.50;99.90;;;;;;4908527;29;20230;-91
2021/03/26 05:42:49;;;;;;;4.53;3.30;;;5.50;99.90;;;;;;4911211;29;20269;-91
2021/03/26 05:45:44;;;;;;;5.07;2.80;;;5.40;99.90;;;;;;4910545;29;20219;-90
2021/03/26 05:48:40;;;;;;;5.63;2.23;;;5.40;99.90;;;;;;4891249;29;20260;-92
2021/03/26 05:51:49;;;;;;;5.47;2.63;;;5.40;99.90;;;;;;4884982;29;20294;-92
2021/03/26 05:54:36;;;;;;;2.50;1.97;;;5.40;99.90;;;;;;4884977;29;20221;-91
2021/03/26 05:57:14;;;;;;;6.17;2.00;;;5.40;99.90;;;;;;4892155;29;20619;-91
2021/03/26 06:00:02;;;;;;;8.03;5.20;;;5.50;99.90;;;;;;4891029;29;20225;-90
2021/03/26 06:03:02;;;;;;;11.93;8.00;;;5.50;99.90;;;;;;4884887;29;20227;-91
2021/03/26 06:06:13;;;;;;;12.03;8.07;;;5.50;99.90;;;;;;4885334;29;20217;-92
2021/03/26 06:09:10;;;;;;;11.40;7.40;;;5.60;99.90;;;;;;4853816;29;20297;-91
2021/03/26 06:12:03;;;;;;;8.77;5.97;;;5.70;99.90;;;;;;4886540;29;20221;-92
2021/03/26 06:15:13;;;;;;;7.60;3.83;;;5.70;99.90;;;;;;4882835;29;20306;-92
2021/03/26 06:18:07;;;;;;;6.47;3.23;;;5.80;99.90;;;;;;4827077;29;20208;-92
2021/03/26 06:21:01;;;;;;;4.73;2.60;;;5.80;99.90;;;;;;4824623;29;20248;-92
2021/03/26 06:24:00;;;;;;;4.70;2.30;;;5.90;99.90;;;;;;4913721;29;20259;-92
2021/03/26 06:27:01;;;;;;;3.00;2.03;;;6.00;99.90;;;;;;4935171;29;20269;-93
2021/03/26 06:29:46;;;;;;;3.60;1.77;;;6.00;99.90;;;;;;4935814;29;20351;-92
2021/03/26 06:33:04;;;;;;;4.27;1.80;;;6.00;99.90;;;;;;4902536;29;20252;-93
2021/03/26 06:36:04;;;;;;;3.93;1.77;;;6.00;99.90;;;;;;4901916;29;20206;-92
2021/03/26 06:39:04;;;;;;;3.10;2.03;;;6.10;99.90;;;;;;4901167;29;20210;-92
2021/03/26 06:41:57;;;;;;;6.27;3.13;;;6.20;99.90;;;;;;4888836;29;20217;-92
2021/03/26 06:44:54;;;;;;;6.23;3.50;;;6.30;99.90;;;;;;4889988;29;20207;-93
2021/03/26 06:47:41;;;;;;;12.20;5.07;;;6.30;99.90;;;;;;4901210;29;20303;-92
2021/03/26 06:50:26;;;;;;;10.43;4.60;;;6.20;99.90;;;;;;4899763;29;20236;-92
2021/03/26 06:53:14;;;;;;;6.73;4.13;;;6.20;99.90;;;;;;4882690;29;20250;-92
2021/03/26 06:56:08;;;;;;;8.53;3.90;;;6.20;99.90;;;;;;4885259;29;20218;-91
2021/03/26 06:59:06;;;;;;;8.70;4.40;;;6.20;99.90;;;;;;4890068;29;20269;-92
2021/03/26 07:01:51;;;;;;;7.80;4.43;;;6.30;99.90;;;;;;4882694;29;20766;-91
2021/03/26 07:04:51;;;;;;;6.73;3.93;;;6.40;99.90;;;;;;4882196;29;20218;-90
2021/03/26 07:08:05;;;;;;;7.67;4.00;;;6.40;99.90;;;;;;4889401;29;20340;-91
2021/03/26 07:10:54;;;;;;;8.33;3.30;;;6.40;99.90;;;;;;4889969;29;20549;-91
2021/03/26 07:13:58;;;;;;;4.77;2.70;;;6.40;99.90;;;;;;4889942;29;20214;-92
2021/03/26 07:16:54;;;;;;;6.73;2.90;;;6.50;99.90;;;;;;4884544;29;20223;-91
2021/03/26 07:19:51;;;;;;;7.27;3.13;;;6.50;99.90;;;;;;4889362;29;20210;-91
2021/03/26 07:22:52;;;;;;;8.10;3.30;;;6.40;99.90;;;;;;4897192;29;20280;-92
2021/03/26 07:25:34;;;;;;;5.57;2.97;;;6.40;99.90;;;;;;4859364;29;20215;-91
2021/03/26 07:28:24;;;;;;;4.57;2.50;;;6.40;99.90;;;;;;4893324;29;20245;-91
2021/03/26 07:31:09;;;;;;;2.23;1.80;;;6.30;99.90;;;;;;4890074;29;20214;-92
2021/03/26 07:33:45;;;;;;;3.10;1.60;;;6.30;99.90;;;;;;4881788;29;20210;-91
2021/03/26 07:36:34;;;;;;;4.10;2.00;;;6.40;99.90;;;;;;4882735;29;20202;-91
2021/03/26 07:39:31;;;;;;;4.27;1.87;;;6.30;99.90;;;;;;4881242;29;20690;-93
2021/03/26 07:42:44;;;;;;;5.40;2.03;;;6.30;99.90;;;;;;4882735;29;20238;-92
2021/03/26 07:45:33;;;;;;;2.83;2.20;;;6.30;99.90;;;;;;4882584;29;20233;-93
2021/03/26 07:48:38;;;;;;;3.50;2.10;;;6.20;99.90;;;;;;4885603;29;20363;-92
2021/03/26 07:51:20;;;;;;;3.37;2.07;;;6.20;99.90;;;;;;4880451;29;20266;-92
2021/03/26 07:54:32;;;;;;;3.07;2.63;;;6.20;99.90;;;;;;4883392;29;20206;-93
2021/03/26 07:57:34;;;;;;;4.40;2.37;;;6.20;99.90;;;;;;4882021;29;20270;-91
2021/03/26 08:00:21;;;;;;;4.23;2.30;;;6.20;99.90;;;;;;4843235;29;20212;-92
2021/03/26 08:03:20;;;;;;;7.87;2.50;;;6.10;99.90;;;;;;4884734;29;20218;-92
2021/03/26 08:06:04;;;;;;;5.50;2.23;;;6.00;99.90;;;;;;4885938;29;20313;-93
2021/03/26 08:09:14;;;;;;;4.40;2.13;;;5.90;99.90;;;;;;4883459;29;20331;-91
2021/03/26 08:11:58;;;;;;;5.17;2.37;;;5.80;99.90;;;;;;4852072;29;20255;-90
2021/03/26 08:15:14;;;;;;;6.20;2.47;;;5.70;99.90;;;;;;4884802;29;20210;-92
2021/03/26 08:17:57;;;;;;;4.33;2.30;;;5.80;99.90;;;;;;4881914;29;20215;-92
2021/03/26 08:20:34;;;;;;;5.57;3.00;;;5.80;99.90;;;;;;4885320;29;20210;-91
2021/03/26 08:23:33;;;;;;;3.90;2.20;;;5.80;99.90;;;;;;4884823;29;20770;-91
2021/03/26 08:26:13;;;;;;;4.77;2.30;;;5.90;99.90;;;;;;4885588;29;20214;-88
2021/03/26 08:29:17;;;;;;;6.83;2.10;;;6.00;99.90;;;;;;4890431;29;20337;-90
2021/03/26 08:32:12;;;;;;;5.43;2.80;;;6.00;99.90;;;;;;4880465;29;20218;-90
2021/03/26 08:35:20;;;;;;;8.93;2.67;;;6.00;99.90;;;;;;4891763;29;20270;-90
2021/03/26 08:38:04;;;;;;;4.00;2.50;;;5.90;99.90;;;;;;4887272;29;20274;-91
2021/03/26 08:40:49;;;;;;;3.90;2.17;;;5.90;99.90;;;;;;4885072;29;20241;-92
2021/03/26 08:43:22;;;;;;;6.23;2.60;;;5.90;99.90;;;;;;4885421;29;20598;-92
2021/03/26 08:46:02;;;;;;;3.87;2.40;;;5.80;99.90;;;;;;4885732;29;20306;-92
2021/03/26 08:48:40;;;;;;;4.77;2.37;;;5.80;99.90;;;;;;4885069;29;20245;-90
2021/03/26 08:51:38;;;;;;;4.37;2.40;;;5.70;99.90;;;;;;4890215;29;20206;-93
2021/03/26 08:54:27;;;;;;;4.17;2.50;;;5.70;99.90;;;;;;4896250;29;20214;-92
2021/03/26 08:57:14;;;;;;;5.37;3.07;;;5.50;99.90;;;;;;4893595;29;20289;-92
2021/03/26 09:00:17;;;;;;;5.80;2.97;;;5.50;99.90;;;;;;4884853;29;20217;-93
2021/03/26 09:03:16;;;;;;;5.43;2.77;;;5.50;99.90;;;;;;4884959;29;20213;-94
2021/03/26 09:06:09;;;;;;;7.20;2.40;;;5.50;99.90;;;;;;4901662;29;20270;-91
2021/03/26 09:09:17;;;;;;;4.83;2.57;;;5.50;99.90;;;;;;4898800;29;20273;-92
2021/03/26 09:12:23;;;;;;;5.33;2.43;;;5.60;99.90;;;;;;4885954;29;20318;-91
2021/03/26 09:15:24;;;;;;;3.70;1.87;;;5.60;99.90;;;;;;4890434;29;20242;-92
2021/03/26 09:18:06;;;;;;;3.30;2.23;;;5.60;99.90;;;;;;4884974;29;20215;-95
2021/03/26 09:20:44;;;;;;;5.43;2.83;;;5.50;99.90;;;;;;4886239;29;20272;-91
2021/03/26 09:23:48;;;;;;;5.03;2.23;;;5.50;99.90;;;;;;4890791;29;20225;-91
2021/03/26 09:26:48;;;;;;;4.00;2.10;;;5.50;99.90;;;;;;4874312;29;20194;-92
2021/03/26 09:29:30;;;;;;;5.20;2.10;;;5.50;99.90;;;;;;4891446;29;20217;-92
2021/03/26 09:32:10;;;;;;;4.33;2.23;;;5.50;99.90;;;;;;4892842;29;20233;-92
2021/03/26 09:34:45;;;;;;;5.07;2.33;;;5.50;99.90;;;;;;4887332;29;20217;-91
2021/03/26 09:37:23;;;;;;;7.13;2.10;;;5.50;99.90;;;;;;4901540;29;20236;-93
2021/03/26 09:40:01;;;;;;;6.77;2.40;;;5.60;99.90;;;;;;4884880;29;20221;-93
2021/03/26 09:42:44;;;;;;;4.93;2.30;;;5.60;99.90;;;;;;4887783;29;20243;-92
2021/03/26 09:45:28;;;;;;;5.83;2.30;;;5.60;99.90;;;;;;4901743;29;20229;-93
2021/03/26 09:48:21;;;;;;;3.87;2.07;;;5.60;99.90;;;;;;4901793;29;20257;-92
2021/03/26 09:51:04;;;;;;;5.83;2.40;;;5.50;99.90;;;;;;4902142;29;20225;-92
2021/03/26 09:53:42;;;;;;;6.10;2.40;;;5.50;99.90;;;;;;4902344;29;20217;-91
2021/03/26 09:56:37;;;;;;;4.27;2.20;;;5.40;99.90;;;;;;4903781;29;20734;-93
2021/03/26 09:59:18;;;;;;;4.63;2.30;;;5.40;99.90;;;;;;4901207;29;20307;-92
2021/03/26 10:01:56;;;;;;;4.40;2.33;;;5.40;99.90;;;;;;4882940;29;20202;-93
2021/03/26 10:04:35;;;;;;;5.83;2.67;;;5.40;99.90;;;;;;4883595;29;20220;-92
2021/03/26 10:07:25;;;;;;;3.97;2.20;;;5.40;99.90;;;;;;4884875;29;20218;-92
2021/03/26 10:12:48;;;;;;;3.17;1.90;;;5.20;99.90;;;;;;4909787;29;20216;-92
2021/03/26 10:15:28;;;;;;;4.73;2.33;;;5.30;99.90;;;;;;4923563;29;20694;-91
2021/03/26 10:18:13;;;;;;;4.13;2.47;;;5.10;99.90;;;;;;4926481;29;20217;-92
2021/03/26 10:20:53;;;;;;;3.47;2.30;;;5.00;99.90;;;;;;4922382;29;20209;-92
2021/03/26 10:23:36;;;;;;;7.70;2.33;;;5.00;99.90;;;;;;4920213;29;20208;-91
2021/03/26 10:26:19;;;;;;;6.47;2.80;;;4.90;99.90;;;;;;4920561;29;20221;-91
2021/03/26 10:29:04;;;;;;;4.87;2.67;;;4.90;99.90;;;;;;4919223;29;20251;-91
2021/03/26 10:31:46;;;;;;;3.80;2.60;;;4.90;99.90;;;;;;4922019;29;20208;-92
2021/03/26 10:34:32;;;;;;;5.80;2.97;;;4.90;99.90;;;;;;4906122;29;20213;-91
2021/03/26 10:37:23;;;;;;;7.77;2.80;;;4.80;99.90;;;;;;4907769;29;20360;-93
2021/03/26 10:40:00;;;;;;;3.57;2.50;;;4.80;99.90;;;;;;4885222;29;20217;-92
2021/03/26 10:42:45;;;;;;;4.93;2.73;;;4.80;99.90;;;;;;4901825;29;20250;-91
2021/03/26 10:45:37;;;;;;;9.53;3.00;;;4.90;99.90;;;;;;4901928;28;20209;-91
2021/03/26 10:48:12;;;;;;;6.10;4.20;;;5.00;99.90;;;;;;4890374;29;20265;-94
2021/03/26 10:51:20;;;;;;;7.63;4.93;;;5.00;99.90;;;;;;4902287;29;20224;-93
2021/03/26 10:53:57;;;;;;;8.23;5.47;;;5.00;99.90;;;;;;4902440;29;20213;-91
2021/03/26 10:56:47;;;;;;;8.83;5.13;;;5.00;99.90;;;;;;4902383;29;20241;-92
2021/03/26 10:59:33;;;;;;;7.87;4.33;;;5.00;99.90;;;;;;4902168;29;20216;-93
2021/03/26 11:02:24;;;;;;;6.07;4.30;;;5.10;99.90;;;;;;4902992;29;20213;-92
2021/03/26 11:05:12;;;;;;;5.60;3.67;;;5.10;99.90;;;;;;4908446;29;20683;-92
2021/03/26 11:07:48;;;;;;;5.80;4.20;;;5.10;99.90;;;;;;4903587;29;20237;-91
2021/03/26 11:10:24;;;;;;;6.93;4.03;;;5.20;99.90;;;;;;4906081;29;20221;-92
2021/03/26 11:13:02;;;;;;;7.97;5.60;;;5.20;99.90;;;;;;4909322;29;20241;-90
2021/03/26 11:15:36;;;;;;;6.47;5.60;;;5.20;99.90;;;;;;4910674;29;20276;-90
2021/03/26 11:18:16;;;;;;;6.37;4.47;;;5.20;99.90;;;;;;4911886;29;20316;-93
2021/03/26 11:20:52;;;;;;;5.83;4.17;;;5.20;99.90;;;;;;4920801;29;20303;-90
2021/03/26 11:23:27;;;;;;;6.07;3.80;;;5.20;99.90;;;;;;4920882;29;20223;-92
2021/03/26 11:26:20;;;;;;;5.30;3.20;;;5.20;99.90;;;;;;4911001;29;20246;-92
2021/03/26 11:29:06;;;;;;;5.23;2.70;;;5.10;99.90;;;;;;4902606;29;20296;-91
2021/03/26 11:31:42;;;;;;;4.53;2.37;;;5.10;99.90;;;;;;4902104;29;20689;-90
2021/03/26 11:34:35;;;;;;;5.37;2.53;;;5.10;99.90;;;;;;4902427;29;20217;-91
2021/03/26 11:37:24;;;;;;;6.43;2.40;;;5.20;99.90;;;;;;4908328;29;20237;-92
2021/03/26 11:40:08;;;;;;;5.60;2.57;;;5.20;99.90;;;;;;4907442;29;20241;-91
2021/03/26 11:42:50;;;;;;;5.10;2.63;;;5.40;99.90;;;;;;4905886;29;20224;-93
2021/03/26 11:45:34;;;;;;;5.53;2.43;;;5.50;99.90;;;;;;4904770;29;20221;-93
2021/03/26 11:48:29;;;;;;;5.40;2.60;;;5.60;99.90;;;;;;4906528;29;20273;-92
2021/03/26 11:51:15;;;;;;;7.50;2.60;;;5.70;99.90;;;;;;4898479;29;20209;-92
2021/03/26 11:54:02;;;;;;;5.23;2.60;;;5.90;99.90;;;;;;4904247;29;20292;-93
2021/03/26 11:56:50;;;;;;;7.40;2.57;;;5.90;99.90;;;;;;4904598;29;20209;-93
2021/03/26 12:00:13;;;;;;;5.43;2.37;;;5.90;99.90;;;;;;4898770;29;20636;-93
2021/03/26 12:02:56;;;;;;;7.60;3.07;;;6.00;99.90;;;;;;4886722;29;20243;-91
2021/03/26 12:05:39;;;;;;;6.57;2.47;;;6.00;99.90;;;;;;4876405;29;20214;-92
2021/03/26 12:08:27;;;;;;;7.13;2.43;;;6.10;99.90;;;;;;4903605;29;20234;-92
2021/03/26 12:11:03;;;;;;;5.27;2.60;;;6.10;99.90;;;;;;4904746;29;20195;-91
2021/03/26 12:13:41;;;;;;;6.50;2.70;;;6.20;99.90;;;;;;4906820;29;20244;-91
2021/03/26 12:16:20;;;;;;;5.33;2.63;;;6.20;99.90;;;;;;4907691;29;20213;-91
2021/03/26 12:18:58;;;;;;;8.97;2.67;;;6.20;99.90;;;;;;4921052;29;20261;-92
2021/03/26 12:21:43;;;;;;;7.60;2.17;;;6.20;99.90;;;;;;4920325;29;20235;-90
2021/03/26 12:24:31;;;;;;;6.67;2.70;;;6.20;99.90;;;;;;4904324;29;20231;-92
2021/03/26 12:27:12;;;;;;;7.00;2.53;;;6.20;99.90;;;;;;4903321;29;20214;-90
2021/03/26 12:29:55;;;;;;;5.83;2.03;;;6.20;99.90;;;;;;4902489;29;20241;-90
2021/03/26 12:32:35;;;;;;;11.23;3.10;;;6.10;99.90;;;;;;4904196;29;20675;-91
2021/03/26 12:35:24;;;;;;;8.43;2.33;;;6.20;99.90;;;;;;4885131;29;20207;-92
2021/03/26 12:38:12;;;;;;;6.30;2.53;;;6.20;99.90;;;;;;4885387;29;20293;-93
2021/03/26 12:41:13;;;;;;;5.47;2.60;;;6.20;99.90;;;;;;4890169;29;20238;-92
2021/03/26 12:43:55;;;;;;;5.47;2.70;;;6.20;99.90;;;;;;4884781;29;20217;-93
2021/03/26 12:46:50;;;;;;;5.50;2.60;;;6.20;99.90;;;;;;4886764;29;20210;-92
2021/03/26 12:49:28;;;;;;;12.60;3.13;;;6.10;99.90;;;;;;4884335;29;20282;-92
2021/03/26 12:52:07;;;;;;;7.17;2.97;;;6.10;99.90;;;;;;4884247;29;20206;-92
2021/03/26 12:54:46;;;;;;;10.67;2.80;;;6.10;99.90;;;;;;4885169;29;20213;-91
2021/03/26 12:57:26;;;;;;;9.27;2.80;;;6.10;99.90;;;;;;4887160;29;20237;-92
2021/03/26 13:00:05;;;;;;;4.77;2.90;;;6.10;99.90;;;;;;4888873;29;20218;-92
2021/03/26 13:02:39;;;;;;;5.87;2.73;;;6.00;99.90;;;;;;4891275;29;20241;-91
2021/03/26 13:05:22;;;;;;;9.03;2.90;;;6.00;99.90;;;;;;4886363;29;20210;-94
2021/03/26 13:08:07;;;;;;;8.43;3.03;;;6.00;99.90;;;;;;4899743;29;20243;-92
2021/03/26 13:10:55;;;;;;;6.37;2.60;;;6.00;99.90;;;;;;4908724;29;20646;-91
2021/03/26 13:14:01;;;;;;;7.00;2.73;;;6.10;99.90;;;;;;4911278;29;20269;-91
2021/03/26 13:16:51;;;;;;;5.93;2.63;;;6.00;99.90;;;;;;4893213;29;20217;-91
2021/03/26 13:19:34;;;;;;;10.73;2.57;;;6.10;99.90;;;;;;4889186;29;20225;-92
2021/03/26 13:22:21;;;;;;;6.60;2.77;;;6.10;99.90;;;;;;4887693;29;20239;-91
2021/03/26 13:25:13;;;;;;;5.73;2.33;;;6.00;99.90;;;;;;4886106;29;20218;-91
2021/03/26 13:27:53;;;;;;;6.77;3.10;;;6.00;99.90;;;;;;4885396;29;20261;-92
2021/03/26 13:30:30;;;;;;;10.47;3.03;;;6.00;99.90;;;;;;4890221;29;20214;-91
2021/03/26 13:33:31;;;;;;;7.70;2.83;;;6.00;99.90;;;;;;4887837;29;20205;-91
2021/03/26 13:36:09;;;;;;;6.47;2.90;;;5.90;99.90;;;;;;4897888;29;20211;-92
2021/03/26 13:38:57;;;;;;;6.57;3.27;;;5.90;99.90;;;;;;4871893;29;20224;-92
2021/03/26 13:41:50;;;;;;;13.03;3.00;;;5.80;99.90;;;;;;4897693;29;20552;-91
2021/03/26 13:44:49;;;;;;;6.17;2.30;;;5.80;99.90;;;;;;4888423;29;20210;-92
2021/03/26 13:47:27;;;;;;;8.13;2.47;;;5.70;99.90;;;;;;4887739;29;20210;-92
2021/03/26 13:50:09;;;;;;;7.23;3.03;;;5.70;99.90;;;;;;4883526;29;20265;-93
2021/03/26 13:52:48;;;;;;;7.17;2.70;;;5.80;99.90;;;;;;4887502;29;20297;-93
2021/03/26 13:55:27;;;;;;;7.80;3.63;;;5.80;99.90;;;;;;4885569;29;20218;-92
2021/03/26 13:58:29;;;;;;;8.97;3.30;;;5.90;99.90;;;;;;4889317;29;20309;-91
2021/03/26 14:01:27;;;;;;;6.40;2.73;;;5.80;99.90;;;;;;4892447;29;20249;-91
2021/03/26 14:04:16;;;;;;;6.20;3.10;;;5.90;99.90;;;;;;4890492;29;20295;-90
2021/03/26 14:06:52;;;;;;;7.57;3.07;;;5.90;99.90;;;;;;4885841;29;20221;-89
2021/03/26 14:09:29;;;;;;;9.67;3.30;;;5.90;99.90;;;;;;4885506;29;20309;-89
2021/03/26 14:12:07;;;;;;;9.60;2.93;;;5.90;99.90;;;;;;4886458;29;20198;-90
2021/03/26 14:14:46;;;;;;;10.93;3.40;;;6.00;99.90;;;;;;4884421;29;20214;-91
2021/03/26 14:17:26;;;;;;;7.13;3.10;;;6.00;99.90;;;;;;4884442;29;20297;-92
2021/03/26 14:20:04;;;;;;;12.30;3.57;;;6.10;99.90;;;;;;4889615;29;20226;-91
2021/03/26 14:22:41;;;;;;;8.43;3.40;;;6.10;99.90;;;;;;4891031;29;20224;-91
2021/03/26 14:25:20;;;;;;;8.67;2.90;;;6.10;99.90;;;;;;4885431;29;20241;-92